Time;durP1;ratioP1;P1;durP2;ratioP2;P2;SDS_P1;SDS_P2;PMS_P1;PMS_P2;Temp;Humidity;BMP_temperature;BMP_pressure;BME280_temperature;BME280_humidity;BME280_pressure;Samples;Min_cycle;Max_cycle;Signal;HPM_P1;HPM_P2
2023/02/16 00:00:48;;;;;;;7.72;6.68;;;;;;;1.02;100.00;101830.25;6083888;23;20255;-73
2023/02/16 00:03:18;;;;;;;7.95;6.30;;;;;;;2.12;100.00;101997.19;6094575;23;20408;-74
2023/02/16 00:05:45;;;;;;;6.28;5.70;;;;;;;2.58;100.00;102075.06;6087595;23;20018;-73
2023/02/16 00:09:12;;;;;;;15.35;14.23;;;;;;;2.57;100.00;102074.22;6036846;23;20292;-73
2023/02/16 00:14:25;;;;;;;8.52;6.72;;;;;;;2.35;100.00;102041.34;5967244;23;20450;-73
2023/02/16 00:16:53;;;;;;;10.50;5.70;;;;;;;2.48;100.00;102068.13;6054878;23;20030;-73
2023/02/16 00:19:23;;;;;;;7.30;6.68;;;;;;;2.46;100.00;102075.03;6098496;23;20013;-73
2023/02/16 00:21:52;;;;;;;12.45;6.80;;;;;;;2.44;100.00;102071.56;6087043;23;20025;-72
2023/02/16 00:24:19;;;;;;;8.82;7.93;;;;;;;2.38;100.00;102094.00;6080956;23;20410;-72
2023/02/16 00:26:49;;;;;;;6.25;5.65;;;;;;;2.35;100.00;102065.50;6084720;23;20301;-72
2023/02/16 00:29:35;;;;;;;5.72;5.20;;;;;;;2.34;100.00;102073.25;6121571;23;20188;-72
2023/02/16 00:32:07;;;;;;;6.43;5.50;;;;;;;1.95;100.00;102002.31;6095176;23;20057;-73
2023/02/16 00:34:36;;;;;;;10.80;6.33;;;;;;;2.31;100.00;102071.53;6112589;23;20472;-72
2023/02/16 00:37:06;;;;;;;7.57;6.85;;;;;;;2.31;100.00;102074.13;6120726;23;20036;-74
2023/02/16 00:39:40;;;;;;;9.75;7.30;;;;;;;2.27;100.00;102067.19;6093373;23;20013;-72
2023/02/16 00:42:17;;;;;;;5.82;5.32;;;;;;;1.74;100.00;102006.50;6105587;23;20033;-73
2023/02/16 00:44:47;;;;;;;9.05;5.90;;;;;;;0.98;100.00;101873.31;6109249;23;20046;-72
2023/02/16 00:47:33;;;;;;;8.18;7.05;;;;;;;2.22;100.00;102073.22;6111268;23;20045;-73
2023/02/16 00:49:59;;;;;;;9.05;5.95;;;;;;;1.66;100.00;101961.63;6100595;23;20116;-72
2023/02/16 00:52:36;;;;;;;6.72;5.93;;;;;;;2.19;100.00;102058.53;6087740;23;20038;-71
2023/02/16 00:55:09;;;;;;;6.85;6.25;;;;;;;1.66;100.00;101986.63;6103104;23;20632;-72
2023/02/16 00:57:50;;;;;;;5.57;5.10;;;;;;;1.96;100.00;102030.78;6111390;23;20025;-72
2023/02/16 01:00:25;;;;;;;6.25;5.55;;;;;;;0.65;100.00;101804.19;6073225;23;20547;-72
2023/02/16 01:02:57;;;;;;;6.47;5.18;;;;;;;1.42;100.00;101945.97;6085414;23;20041;-74
2023/02/16 01:05:24;;;;;;;8.73;7.88;;;;;;;0.47;100.00;101802.34;6107110;23;20029;-71
2023/02/16 01:13:46;;;;;;;8.25;4.28;;;;;;;1.98;100.00;102041.16;6055475;23;20256;-73
2023/02/16 01:16:21;;;;;;;5.05;4.70;;;;;;;0.15;100.00;101745.31;6117405;23;20017;-73
2023/02/16 01:18:49;;;;;;;8.93;7.10;;;;;;;1.87;100.00;102041.13;6088578;23;20048;-73
2023/02/16 01:21:18;;;;;;;6.78;6.18;;;;;;;-0.42;100.00;101659.72;6104867;23;20980;-73
2023/02/16 01:23:44;;;;;;;7.88;5.47;;;;;;;0.22;100.00;101784.94;6060187;23;20459;-73
2023/02/16 01:26:17;;;;;;;10.65;5.60;;;;;;;0.08;100.00;101766.75;6084535;23;20017;-73
2023/02/16 01:28:44;;;;;;;7.93;7.07;;;;;;;1.64;100.00;102035.78;6118338;23;20083;-72
2023/02/16 01:31:12;;;;;;;6.10;5.45;;;;;;;1.13;100.00;101951.84;6091078;23;20022;-72
2023/02/16 01:33:40;;;;;;;7.63;5.93;;;;;;;0.13;100.00;101832.19;6114364;23;20029;-72
2023/02/16 01:36:18;;;;;;;6.22;5.63;;;;;;;1.31;100.00;101998.50;6102483;23;20033;-72
2023/02/16 01:38:44;;;;;;;5.75;5.22;;;;;;;-1.17;100.00;101594.56;6111499;23;20039;-72
2023/02/16 01:41:23;;;;;;;5.38;4.65;;;;;;;0.93;100.00;101964.59;6093006;23;20029;-72
2023/02/16 01:43:57;;;;;;;7.68;6.97;;;;;;;1.25;100.00;102045.00;6105482;23;20081;-73
2023/02/16 01:46:47;;;;;;;6.85;6.25;;;;;;;1.37;100.00;102028.72;6111957;23;20037;-72
2023/02/16 01:49:16;;;;;;;9.10;5.82;;;;;;;1.35;100.00;102023.53;6093254;23;20024;-72
2023/02/16 01:51:54;;;;;;;6.80;6.13;;;;;;;-0.15;100.00;101772.59;6107944;23;20057;-72
2023/02/16 01:54:37;;;;;;;9.13;6.57;;;;;;;1.36;100.00;102012.34;6116080;23;20017;-73
2023/02/16 01:57:30;;;;;;;5.22;4.50;;;;;;;0.81;100.00;101912.81;6089668;23;20030;-73
2023/02/16 01:59:56;;;;;;;8.57;6.63;;;;;;;1.44;100.00;102009.78;6111960;23;20088;-73
2023/02/16 02:02:26;;;;;;;6.20;5.70;;;;;;;1.05;100.00;101980.22;6106639;23;20045;-73
2023/02/16 02:08:09;;;;;;;7.60;6.72;;;;;;;1.16;100.00;101967.34;6114000;23;20054;-72
2023/02/16 02:10:58;;;;;;;5.93;5.35;;;;;;;1.48;100.00;102023.63;6112302;23;20100;-72
2023/02/16 02:13:57;;;;;;;5.82;5.00;;;;;;;1.36;100.00;102063.19;6091368;23;20115;-72
2023/02/16 02:16:26;;;;;;;5.88;5.35;;;;;;;1.21;100.00;102019.13;6107055;23;20518;-75
2023/02/16 02:18:53;;;;;;;6.82;6.32;;;;;;;0.37;100.00;101876.28;6086035;23;20006;-72
2023/02/16 02:24:59;;;;;;;5.32;4.97;;;;;;;1.12;100.00;102004.38;6102827;23;20086;-75
2023/02/16 02:27:38;;;;;;;5.45;5.00;;;;;;;1.13;100.00;102004.41;6106935;23;20111;-74
2023/02/16 02:30:16;;;;;;;5.15;4.75;;;;;;;1.13;100.00;102006.97;6112717;23;20300;-73
2023/02/16 02:33:24;;;;;;;5.78;5.32;;;;;;;1.10;100.00;102008.66;6121547;23;20460;-75
2023/02/16 02:36:18;;;;;;;5.97;5.43;;;;;;;1.04;100.00;102006.91;6111348;23;20472;-73
2023/02/16 02:39:03;;;;;;;5.88;5.38;;;;;;;1.02;100.00;101998.25;6105897;23;20259;-72
2023/02/16 02:44:23;;;;;;;5.57;5.18;;;;;;;0.67;100.00;101935.97;6110708;23;20017;-71
2023/02/16 02:46:50;;;;;;;6.95;6.05;;;;;;;0.55;100.00;101911.75;6101927;23;20018;-71
2023/02/16 02:49:16;;;;;;;8.32;7.57;;;;;;;0.70;100.00;101933.38;6088559;23;20376;-72
2023/02/16 02:51:47;;;;;;;6.45;5.90;;;;;;;1.08;100.00;101993.16;6092056;23;20029;-72
2023/02/16 03:00:40;;;;;;;5.22;4.57;;;;;;;0.95;100.00;101943.09;6084442;23;20079;-72
2023/02/16 03:03:38;;;;;;;12.35;5.25;;;;;;;1.23;100.00;101987.25;6078642;23;20688;-73
2023/02/16 03:06:18;;;;;;;6.13;5.50;;;;;;;1.07;100.00;101978.50;6083874;23;20618;-71
2023/02/16 03:08:59;;;;;;;6.32;5.70;;;;;;;-0.42;100.00;101761.16;6055388;23;20084;-71
2023/02/16 03:14:19;;;;;;;5.45;5.03;;;;;;;0.98;100.00;101986.16;6054198;23;20051;-71
2023/02/16 03:30:55;;;;;;;4.80;4.40;;;;;;;0.51;100.00;101876.41;6031612;23;20565;-72
2023/02/16 03:33:23;;;;;;;5.60;4.40;;;;;;;-0.08;100.00;101789.84;6056682;23;20022;-72
2023/02/16 03:35:54;;;;;;;6.28;5.78;;;;;;;0.91;100.00;101948.22;6033707;23;20086;-72
2023/02/16 03:38:24;;;;;;;3.92;3.72;;;;;;;0.94;100.00;101949.13;6033128;23;20088;-73
2023/02/16 03:40:54;;;;;;;4.45;4.15;;;;;;;0.89;100.00;101955.97;6052809;23;20018;-73
2023/02/16 03:43:26;;;;;;;5.90;5.40;;;;;;;0.65;100.00;101924.75;6055920;23;20077;-73
2023/02/16 03:45:53;;;;;;;4.88;4.57;;;;;;;0.27;100.00;101871.91;6053590;23;20775;-73
2023/02/16 03:48:22;;;;;;;5.22;4.57;;;;;;;0.17;100.00;101841.69;6053235;23;20026;-72
2023/02/16 03:50:49;;;;;;;5.78;4.93;;;;;;;0.09;100.00;101830.44;6033719;23;20037;-73
2023/02/16 03:53:17;;;;;;;8.10;5.65;;;;;;;-0.09;100.00;101820.81;6055536;23;20061;-72
2023/02/16 03:55:46;;;;;;;6.05;5.65;;;;;;;0.75;100.00;101958.44;6040302;23;20027;-72
2023/02/16 03:58:15;;;;;;;5.18;4.82;;;;;;;-0.46;100.00;101780.03;6058408;23;20114;-72
2023/02/16 04:00:42;;;;;;;7.47;5.10;;;;;;;0.09;100.00;101864.84;6029737;23;20033;-71
2023/02/16 04:03:09;;;;;;;6.90;6.32;;;;;;;0.64;100.00;101962.63;6053033;23;20579;-72
2023/02/16 04:05:41;;;;;;;6.25;4.38;;;;;;;0.52;100.00;101944.44;6054750;23;20639;-72
2023/02/16 04:08:09;;;;;;;14.90;5.38;;;;;;;0.59;100.00;101964.31;6052297;23;20023;-72
2023/02/16 04:10:37;;;;;;;4.75;4.45;;;;;;;0.55;100.00;101970.31;6029881;23;20019;-72
2023/02/16 04:13:03;;;;;;;5.45;5.13;;;;;;;-0.75;100.00;101741.03;6034457;23;20065;-70
2023/02/16 04:15:33;;;;;;;5.15;4.85;;;;;;;0.62;100.00;101958.28;6033839;23;20057;-71
2023/02/16 04:18:00;;;;;;;4.38;4.18;;;;;;;0.05;100.00;101888.03;6051973;23;20022;-73
2023/02/16 04:20:31;;;;;;;9.63;5.55;;;;;;;-0.32;100.00;101785.31;6052858;23;20034;-73
2023/02/16 04:23:00;;;;;;;6.97;4.72;;;;;;;0.02;100.00;101833.78;6054271;23;20049;-72
2023/02/16 04:25:27;;;;;;;7.32;5.05;;;;;;;0.27;100.00;101879.66;6045852;23;20619;-72
2023/02/16 04:27:54;;;;;;;6.18;5.45;;;;;;;0.47;100.00;101933.19;6054020;23;20018;-72
2023/02/16 04:30:24;;;;;;;12.63;4.65;;;;;;;0.63;100.00;101952.28;6032047;23;20027;-72
2023/02/16 04:32:51;;;;;;;13.90;7.43;;;;;;;-0.01;100.00;101848.41;6036743;23;20577;-72
2023/02/16 04:35:22;;;;;;;4.13;3.85;;;;;;;0.38;100.00;101913.31;6053387;23;20038;-72
2023/02/16 04:37:50;;;;;;;5.35;3.97;;;;;;;0.56;100.00;101953.94;6025775;23;20044;-70
2023/02/16 04:40:21;;;;;;;4.78;4.40;;;;;;;0.14;100.00;101890.69;6054730;23;20088;-71
2023/02/16 04:42:54;;;;;;;12.50;5.13;;;;;;;0.47;100.00;101951.28;6028103;23;20042;-71
2023/02/16 04:45:23;;;;;;;4.95;4.60;;;;;;;-0.93;100.00;101715.03;6052347;23;20093;-72
2023/02/16 04:47:49;;;;;;;6.10;5.38;;;;;;;-0.15;100.00;101842.25;6032934;23;20030;-72
2023/02/16 04:50:16;;;;;;;5.40;4.90;;;;;;;0.31;100.00;101914.13;6050564;23;20052;-72
2023/02/16 04:52:43;;;;;;;6.25;5.63;;;;;;;0.11;100.00;101870.88;6051723;23;20073;-72
2023/02/16 04:55:09;;;;;;;5.05;4.70;;;;;;;0.22;100.00;101903.69;6048589;23;20029;-72
2023/02/16 04:57:39;;;;;;;4.13;3.78;;;;;;;0.43;100.00;101918.53;5986534;23;20031;-72
2023/02/16 05:00:10;;;;;;;5.68;5.10;;;;;;;0.56;100.00;101949.66;6022906;23;20034;-72
2023/02/16 05:02:39;;;;;;;4.68;4.38;;;;;;;0.01;100.00;101842.41;6022253;23;20054;-72
2023/02/16 05:05:08;;;;;;;4.03;3.83;;;;;;;0.21;100.00;101889.91;6001538;23;20023;-72
2023/02/16 05:07:35;;;;;;;5.43;4.60;;;;;;;0.57;100.00;101963.44;6023830;23;20050;-74
2023/02/16 05:10:03;;;;;;;5.78;5.25;;;;;;;0.38;100.00;101929.69;6022507;23;20074;-73
2023/02/16 05:15:20;;;;;;;5.82;5.50;;;;;;;0.64;100.00;101948.84;6026921;23;20026;-73
2023/02/16 05:17:47;;;;;;;6.80;5.38;;;;;;;0.01;100.00;101851.00;6031132;18;20046;-74
2023/02/16 05:20:13;;;;;;;4.72;4.35;;;;;;;-0.73;100.00;101723.84;6068886;23;20026;-74
2023/02/16 05:22:42;;;;;;;5.82;4.82;;;;;;;0.22;100.00;101883.91;5997624;23;20031;-74
2023/02/16 05:25:08;;;;;;;5.25;4.82;;;;;;;-0.11;100.00;101820.78;6050960;23;20026;-74
2023/02/16 05:27:38;;;;;;;4.90;4.50;;;;;;;0.46;100.00;101911.69;6050958;23;20103;-73
2023/02/16 05:30:07;;;;;;;9.70;5.65;;;;;;;-0.22;100.00;101800.03;6051725;23;20029;-74
2023/02/16 05:32:33;;;;;;;5.88;5.28;;;;;;;-0.15;100.00;101806.13;6043899;23;20026;-74
2023/02/16 05:35:00;;;;;;;5.15;4.68;;;;;;;-0.12;100.00;101803.59;6054948;23;20077;-74
2023/02/16 05:37:26;;;;;;;5.57;4.07;;;;;;;0.64;100.00;101931.63;6023968;23;20419;-74
2023/02/16 05:39:53;;;;;;;7.53;5.57;;;;;;;0.19;100.00;101840.00;6052583;23;20666;-74
2023/02/16 05:42:22;;;;;;;4.88;4.57;;;;;;;0.90;100.00;101967.16;6033520;23;20127;-73
2023/02/16 05:44:55;;;;;;;6.57;4.88;;;;;;;0.55;100.00;101883.34;6052756;23;20101;-74
2023/02/16 05:47:22;;;;;;;10.63;4.80;;;;;;;0.72;100.00;101909.31;6040475;23;20178;-73
2023/02/16 05:49:49;;;;;;;4.28;3.97;;;;;;;0.41;100.00;101840.19;6069200;23;20307;-73
2023/02/16 05:52:15;;;;;;;6.90;4.70;;;;;;;0.97;100.00;101937.94;6046388;23;20037;-72
2023/02/16 05:54:42;;;;;;;4.00;3.80;;;;;;;0.67;100.00;101882.56;6046535;23;20030;-72
2023/02/16 05:57:09;;;;;;;5.93;4.88;;;;;;;0.99;100.00;101928.47;6047553;23;20033;-73
2023/02/16 05:59:38;;;;;;;6.03;4.97;;;;;;;1.04;100.00;101925.91;6045612;23;20031;-73
2023/02/16 06:02:05;;;;;;;4.70;4.40;;;;;;;0.36;100.00;101851.34;6041619;23;20106;-73
2023/02/16 06:04:32;;;;;;;5.18;4.72;;;;;;;1.04;100.00;101931.06;6049938;23;20168;-73
2023/02/16 06:06:58;;;;;;;8.65;5.55;;;;;;;1.06;100.00;101942.28;6051448;23;20022;-73
2023/02/16 06:09:25;;;;;;;6.47;5.82;;;;;;;0.76;100.00;101897.25;6078253;23;20316;-73
2023/02/16 06:11:52;;;;;;;6.03;5.60;;;;;;;0.90;100.00;101907.72;6055948;23;20184;-73
2023/02/16 06:14:19;;;;;;;6.07;5.53;;;;;;;1.15;100.00;101943.22;6052484;23;20019;-73
2023/02/16 06:16:48;;;;;;;4.57;4.25;;;;;;;1.20;100.00;101940.66;6032662;23;20089;-73
2023/02/16 06:19:17;;;;;;;8.68;5.00;;;;;;;1.15;100.00;101925.13;6053388;23;20088;-73
2023/02/16 06:21:47;;;;;;;5.68;5.07;;;;;;;1.26;100.00;101935.53;6074258;23;20145;-74
2023/02/16 06:24:16;;;;;;;7.45;5.32;;;;;;;1.31;100.00;101943.34;6050633;23;20042;-73
2023/02/16 06:26:42;;;;;;;6.03;5.55;;;;;;;1.10;100.00;101898.41;6075831;23;20030;-72
2023/02/16 06:29:12;;;;;;;7.25;5.72;;;;;;;1.16;100.00;101908.78;6048894;23;20054;-73
2023/02/16 06:31:38;;;;;;;7.22;4.60;;;;;;;0.96;100.00;101862.13;6027405;23;20025;-73
2023/02/16 06:34:06;;;;;;;5.43;4.07;;;;;;;1.41;100.00;101928.75;6054368;23;20072;-73
2023/02/16 06:36:33;;;;;;;5.18;4.85;;;;;;;1.04;100.00;101875.06;6026214;23;20466;-73
2023/02/16 06:39:00;;;;;;;4.40;4.20;;;;;;;1.43;100.00;101932.19;6054259;23;20112;-73
2023/02/16 06:41:39;;;;;;;7.22;4.45;;;;;;;1.47;100.00;101929.63;6055815;23;20043;-71
2023/02/16 06:44:08;;;;;;;5.47;4.97;;;;;;;1.33;100.00;101915.75;6071853;23;20051;-73
2023/02/16 06:46:35;;;;;;;5.93;4.93;;;;;;;1.32;100.00;101899.38;6052387;23;20361;-73
2023/02/16 06:49:02;;;;;;;6.13;5.18;;;;;;;1.57;100.00;101944.34;6080246;23;20073;-73
2023/02/16 06:51:29;;;;;;;7.90;6.03;;;;;;;1.57;100.00;101939.16;6053011;23;20613;-72
2023/02/16 06:53:56;;;;;;;5.22;4.72;;;;;;;1.24;100.00;101875.19;6052107;23;20010;-70
2023/02/16 06:56:22;;;;;;;4.88;4.53;;;;;;;1.21;100.00;101893.28;6048166;23;20421;-71
2023/02/16 06:58:49;;;;;;;5.47;5.07;;;;;;;1.38;100.00;101889.06;6049203;23;20006;-70
2023/02/16 07:01:21;;;;;;;6.25;5.28;;;;;;;1.63;100.00;101919.38;6045725;23;20094;-70
2023/02/16 07:03:49;;;;;;;6.35;3.90;;;;;;;1.38;100.00;101865.78;6067775;23;20265;-70
2023/02/16 07:06:16;;;;;;;6.00;5.50;;;;;;;1.81;100.00;101921.16;6051967;23;20241;-69
2023/02/16 07:08:43;;;;;;;6.07;5.57;;;;;;;1.92;100.00;101927.22;6073926;23;20033;-70
2023/02/16 07:11:09;;;;;;;6.43;5.82;;;;;;;1.95;100.00;101948.81;6052272;23;20107;-71
2023/02/16 07:13:37;;;;;;;12.00;5.45;;;;;;;2.02;100.00;101935.88;6046635;23;20022;-70
2023/02/16 07:16:05;;;;;;;9.40;6.30;;;;;;;1.59;100.00;101871.91;6054527;23;20447;-70
2023/02/16 07:18:32;;;;;;;6.95;6.28;;;;;;;1.43;100.00;101834.75;6048379;23;20035;-69
2023/02/16 07:20:59;;;;;;;12.13;6.30;;;;;;;1.91;100.00;101900.47;6068888;23;20083;-70
2023/02/16 07:23:25;;;;;;;9.48;7.38;;;;;;;0.91;100.00;101737.16;6047244;23;20026;-70
2023/02/16 07:25:52;;;;;;;7.45;5.63;;;;;;;1.91;100.00;101920.34;6045694;23;20329;-70
2023/02/16 07:28:18;;;;;;;6.85;4.93;;;;;;;2.14;100.00;101934.19;6073948;23;20028;-70
2023/02/16 07:30:44;;;;;;;9.60;6.95;;;;;;;1.59;100.00;101841.72;6044850;23;20533;-70
2023/02/16 07:33:11;;;;;;;5.80;5.25;;;;;;;1.66;100.00;101858.13;6027740;23;20030;-70
2023/02/16 07:35:37;;;;;;;6.07;5.63;;;;;;;1.81;100.00;101893.56;6071056;23;20030;-70
2023/02/16 07:38:04;;;;;;;5.82;5.22;;;;;;;2.24;100.00;101945.44;6049110;23;20100;-70
2023/02/16 07:40:31;;;;;;;11.68;6.72;;;;;;;1.85;100.00;101887.53;6048907;23;20042;-68
2023/02/16 07:43:03;;;;;;;6.30;5.70;;;;;;;2.24;100.00;101942.84;6068828;23;20049;-70
2023/02/16 07:45:31;;;;;;;9.73;6.05;;;;;;;2.25;100.00;101944.59;6024142;23;20035;-70
2023/02/16 07:47:58;;;;;;;5.65;4.95;;;;;;;2.33;100.00;101953.25;6052644;23;20051;-70
2023/02/16 07:50:27;;;;;;;6.88;4.75;;;;;;;2.19;100.00;101911.78;6022375;23;20034;-70
2023/02/16 07:52:53;;;;;;;8.00;5.63;;;;;;;2.30;100.00;101906.59;6070596;23;20030;-70
2023/02/16 07:55:20;;;;;;;13.57;7.65;;;;;;;2.04;100.00;101857.34;6019297;23;20030;-70
2023/02/16 07:57:48;;;;;;;6.45;5.95;;;;;;;2.45;100.00;101915.28;6048369;23;20030;-70
2023/02/16 08:00:15;;;;;;;7.25;5.63;;;;;;;2.31;100.00;101884.16;6024662;23;20022;-70
2023/02/16 08:02:41;;;;;;;8.93;6.88;;;;;;;2.25;100.00;101874.66;6052121;23;20038;-70
2023/02/16 08:05:08;;;;;;;12.25;7.25;;;;;;;1.55;100.00;101756.34;6050329;23;20390;-70
2023/02/16 08:07:36;;;;;;;6.55;5.47;;;;;;;2.07;100.00;101853.94;6069108;23;20029;-71
2023/02/16 08:10:02;;;;;;;5.97;5.50;;;;;;;2.79;100.00;101971.44;6051121;23;20097;-70
2023/02/16 08:12:29;;;;;;;12.90;7.45;;;;;;;2.88;100.00;101957.59;6058378;23;20052;-69
2023/02/16 08:14:55;;;;;;;6.15;5.55;;;;;;;2.93;100.00;101948.13;6027112;23;20489;-69
2023/02/16 08:17:22;;;;;;;12.23;6.88;;;;;;;3.02;100.00;101957.59;6047487;23;20026;-69
2023/02/16 08:19:49;;;;;;;7.30;6.55;;;;;;;2.99;100.00;101947.25;6066101;23;20018;-70
2023/02/16 08:22:16;;;;;;;7.85;6.90;;;;;;;2.78;100.00;101927.38;6047469;23;20084;-70
2023/02/16 08:24:43;;;;;;;11.38;7.25;;;;;;;2.63;100.00;101897.13;6070001;23;20083;-69
2023/02/16 08:27:10;;;;;;;10.10;8.57;;;;;;;2.94;100.00;101936.84;6019770;23;20042;-69
2023/02/16 08:29:36;;;;;;;9.55;7.35;;;;;;;2.87;100.00;101932.56;6068606;23;20116;-69
2023/02/16 08:32:06;;;;;;;6.70;5.95;;;;;;;2.78;100.00;101886.75;6021392;23;20026;-69
2023/02/16 08:34:35;;;;;;;7.18;6.03;;;;;;;3.21;100.00;101955.88;6031302;23;20025;-70
2023/02/16 08:37:03;;;;;;;8.32;5.60;;;;;;;3.30;100.00;101957.59;6042952;23;20317;-70
2023/02/16 08:39:31;;;;;;;10.05;7.03;;;;;;;3.39;100.00;101958.44;6049478;23;20222;-68
2023/02/16 08:42:01;;;;;;;8.25;6.10;;;;;;;3.27;100.00;101931.63;6051234;23;20014;-70
2023/02/16 08:44:29;;;;;;;12.18;8.77;;;;;;;3.24;100.00;101922.13;6021492;23;20114;-70
2023/02/16 08:46:59;;;;;;;9.57;6.60;;;;;;;3.56;100.00;101955.78;6068726;23;20197;-70
2023/02/16 08:49:26;;;;;;;9.43;8.50;;;;;;;3.67;100.00;101967.84;6048203;23;20187;-69
2023/02/16 08:51:55;;;;;;;15.23;7.63;;;;;;;3.47;100.00;101932.47;6050187;23;20460;-69
2023/02/16 08:54:25;;;;;;;8.52;6.68;;;;;;;3.23;100.00;101889.28;6049119;23;20033;-70
2023/02/16 08:56:53;;;;;;;7.90;7.13;;;;;;;3.17;100.00;101850.41;6068773;23;20428;-70
2023/02/16 08:59:21;;;;;;;14.98;8.40;;;;;;;3.68;100.00;101922.88;6051994;23;20098;-69
2023/02/16 09:01:48;;;;;;;6.65;6.10;;;;;;;3.99;100.00;101954.78;6023775;23;20120;-70
2023/02/16 09:04:16;;;;;;;8.48;7.72;;;;;;;3.75;100.00;101896.03;6049017;23;20404;-69
2023/02/16 09:06:44;;;;;;;8.85;7.55;;;;;;;4.20;100.00;101954.66;6043000;23;20114;-69
2023/02/16 09:09:12;;;;;;;11.27;7.50;;;;;;;4.38;100.00;101968.41;6047195;23;20033;-69
2023/02/16 09:11:39;;;;;;;10.35;6.32;;;;;;;4.66;100.00;101963.03;6050443;23;20053;-70
2023/02/16 09:14:08;;;;;;;11.70;7.97;;;;;;;4.81;100.00;101955.09;6071198;23;20606;-69
2023/02/16 09:16:38;;;;;;;14.05;8.05;;;;;;;4.93;100.00;101941.13;6032428;23;20142;-70
2023/02/16 09:19:05;;;;;;;9.90;7.78;;;;;;;5.43;100.00;101949.34;6071245;23;20033;-70
2023/02/16 09:21:32;;;;;;;7.97;6.82;;;;;;;5.22;100.00;101860.19;6042031;23;20076;-71
2023/02/16 09:24:01;;;;;;;15.43;8.95;;;;;;;5.64;100.00;101890.97;6022657;23;20030;-70
2023/02/16 09:26:31;;;;;;;9.25;7.75;;;;;;;5.91;98.18;101916.66;6048614;23;20539;-70
2023/02/16 09:29:00;;;;;;;12.60;7.70;;;;;;;5.74;96.39;101859.56;6047538;23;20038;-71
2023/02/16 09:31:31;;;;;;;13.57;9.57;;;;;;;5.98;94.84;101857.53;6050813;23;20105;-71
2023/02/16 09:34:21;;;;;;;14.02;7.60;;;;;;;6.63;93.09;101886.06;6044877;23;20036;-70
2023/02/16 09:36:49;;;;;;;12.30;8.63;;;;;;;6.54;90.27;101862.75;6033519;23;20030;-71
2023/02/16 09:39:16;;;;;;;8.23;7.43;;;;;;;6.35;89.98;101851.75;6049537;23;20402;-71
2023/02/16 09:42:01;;;;;;;13.38;8.93;;;;;;;6.54;90.03;101891.44;6044251;23;20023;-70
2023/02/16 09:44:47;;;;;;;14.68;9.40;;;;;;;5.98;89.93;101819.28;6051968;23;20140;-70
2023/02/16 09:47:30;;;;;;;12.85;9.85;;;;;;;6.15;88.73;101832.09;6023619;23;20026;-71
2023/02/16 09:50:02;;;;;;;15.00;10.02;;;;;;;6.53;88.94;101892.31;6050716;23;20445;-71
2023/02/16 09:52:39;;;;;;;12.88;9.07;;;;;;;6.67;89.03;101890.34;6069221;23;20438;-71
2023/02/16 09:55:14;;;;;;;14.07;10.00;;;;;;;6.60;88.68;101888.72;6048993;23;20215;-70
2023/02/16 09:57:54;;;;;;;10.30;8.20;;;;;;;6.76;88.71;101902.38;6047893;23;20319;-70
2023/02/16 10:00:32;;;;;;;14.07;9.25;;;;;;;6.79;88.02;101892.75;6046565;23;20178;-70
2023/02/16 10:03:36;;;;;;;11.68;7.88;;;;;;;6.78;87.97;101888.41;6024012;23;20486;-70
2023/02/16 10:06:12;;;;;;;10.52;7.63;;;;;;;6.75;86.99;101890.22;6047446;23;20030;-71
2023/02/16 10:08:52;;;;;;;16.17;10.40;;;;;;;6.10;86.90;101813.03;6046535;23;20449;-70
2023/02/16 10:11:47;;;;;;;12.15;9.73;;;;;;;6.69;87.00;101883.34;6069604;23;20059;-70
2023/02/16 10:14:40;;;;;;;16.08;10.55;;;;;;;6.77;87.65;101891.03;6049022;23;20006;-71
2023/02/16 10:17:18;;;;;;;13.50;8.93;;;;;;;6.77;88.42;101891.03;6020999;23;20023;-70
2023/02/16 10:20:00;;;;;;;11.80;9.20;;;;;;;6.79;88.72;101895.38;6020333;23;20631;-70
2023/02/16 10:22:35;;;;;;;17.60;10.07;;;;;;;6.43;88.40;101838.59;6065942;23;20131;-70
2023/02/16 10:25:11;;;;;;;30.85;9.88;;;;;;;6.43;88.88;101822.94;6044940;23;20311;-69
2023/02/16 10:27:40;;;;;;;13.32;9.73;;;;;;;6.37;88.79;101829.13;6045443;23;20417;-70
2023/02/16 10:30:14;;;;;;;11.10;8.27;;;;;;;6.73;88.16;101877.19;6044430;23;20023;-69
2023/02/16 10:33:07;;;;;;;9.90;8.68;;;;;;;6.64;89.38;101879.97;6071404;23;20046;-71
2023/02/16 10:35:42;;;;;;;13.43;9.10;;;;;;;6.62;89.17;101876.53;6042227;23;20036;-70
2023/02/16 10:38:19;;;;;;;11.32;9.85;;;;;;;6.60;89.65;101888.72;6046716;23;20709;-69
2023/02/16 10:41:04;;;;;;;11.93;9.20;;;;;;;6.58;89.77;101882.69;6045386;23;20030;-69
2023/02/16 10:43:42;;;;;;;14.93;9.85;;;;;;;6.57;90.38;101899.19;6044013;23;20037;-69
2023/02/16 10:46:24;;;;;;;10.68;8.68;;;;;;;6.40;91.83;101881.22;6069478;23;20166;-69
2023/02/16 10:48:53;;;;;;;15.50;9.90;;;;;;;5.31;90.83;101718.66;6047467;23;20072;-69
2023/02/16 10:51:26;;;;;;;9.25;8.27;;;;;;;6.52;90.75;101922.75;6049615;23;20042;-69
2023/02/16 10:54:07;;;;;;;14.80;9.52;;;;;;;6.49;91.25;101893.25;6050267;23;20268;-70
2023/02/16 10:56:33;;;;;;;13.05;8.50;;;;;;;6.50;92.53;101898.44;6043772;23;20014;-69
2023/02/16 10:59:04;;;;;;;13.93;9.38;;;;;;;6.03;92.48;101814.00;6074248;23;20046;-70
2023/02/16 11:01:37;;;;;;;14.55;9.52;;;;;;;6.61;92.74;101903.47;6052968;23;20034;-70
2023/02/16 11:04:04;;;;;;;13.05;8.35;;;;;;;6.37;92.29;101842.16;6072114;23;20038;-69
2023/02/16 11:06:31;;;;;;;14.88;9.68;;;;;;;6.54;92.12;101860.16;6052248;23;20033;-70
2023/02/16 11:09:03;;;;;;;10.90;9.68;;;;;;;6.84;92.29;101894.44;6025752;23;20099;-70
2023/02/16 11:11:37;;;;;;;13.05;9.70;;;;;;;6.98;91.32;101882.00;6046223;23;20089;-70
2023/02/16 11:14:06;;;;;;;16.30;10.23;;;;;;;7.01;90.01;101847.97;6024282;23;20450;-69
2023/02/16 11:16:34;;;;;;;17.05;10.25;;;;;;;7.29;88.73;101869.19;6055880;23;20458;-69
2023/02/16 11:19:23;;;;;;;16.02;10.05;;;;;;;7.56;88.41;101865.19;6057511;23;20165;-70
2023/02/16 11:21:55;;;;;;;11.65;8.75;;;;;;;7.61;86.44;101838.94;6053527;23;20042;-70
2023/02/16 11:24:28;;;;;;;12.95;10.35;;;;;;;7.65;85.63;101821.47;6053850;23;20375;-69
2023/02/16 11:27:21;;;;;;;14.70;10.82;;;;;;;7.92;84.87;101828.69;6053107;23;20275;-69
2023/02/16 11:29:49;;;;;;;12.35;9.48;;;;;;;8.01;84.74;101826.75;6027277;23;20034;-69
2023/02/16 11:32:20;;;;;;;17.08;10.43;;;;;;;8.21;84.04;101815.81;6056911;23;20109;-70
2023/02/16 11:34:49;;;;;;;10.70;8.80;;;;;;;8.24;82.79;101800.91;6057310;23;20018;-70
2023/02/16 11:37:32;;;;;;;17.15;10.07;;;;;;;8.35;82.77;101805.88;6051306;23;20101;-70
2023/02/16 11:40:12;;;;;;;11.75;9.45;;;;;;;8.35;82.41;101791.03;6050868;23;20787;-70
2023/02/16 11:42:45;;;;;;;11.05;8.32;;;;;;;8.26;82.08;101769.47;6048735;23;20424;-70
2023/02/16 11:45:26;;;;;;;15.13;8.98;;;;;;;8.47;81.97;101784.66;6073035;23;20479;-70
2023/02/16 11:47:55;;;;;;;23.92;11.60;;;;;;;8.31;82.74;101757.16;6007016;23;20027;-69
2023/02/16 11:50:31;;;;;;;15.95;10.82;;;;;;;8.37;82.80;101747.38;6053487;23;20381;-68
2023/02/16 11:53:13;;;;;;;17.85;10.48;;;;;;;8.50;82.43;101771.50;6052926;23;20038;-67
2023/02/16 11:55:43;;;;;;;17.20;11.40;;;;;;;7.94;81.72;101664.84;6054706;23;20506;-68
2023/02/16 11:58:28;;;;;;;14.57;11.07;;;;;;;8.55;82.21;101766.16;6031012;23;20038;-69
2023/02/16 12:01:27;;;;;;;18.52;11.18;;;;;;;8.62;82.10;101762.50;6078762;23;20013;-70
2023/02/16 12:04:24;;;;;;;22.42;9.80;;;;;;;8.73;82.23;101773.50;6027870;23;20039;-68
2023/02/16 12:07:14;;;;;;;11.95;9.07;;;;;;;8.68;82.42;101766.66;6030690;23;20074;-68
2023/02/16 12:10:01;;;;;;;12.55;9.90;;;;;;;8.70;82.69;101760.53;6052133;23;20104;-70
2023/02/16 12:12:47;;;;;;;16.58;9.00;;;;;;;7.59;82.27;101556.84;6049574;23;20022;-69
2023/02/16 12:15:14;;;;;;;27.08;11.43;;;;;;;8.79;82.77;101751.53;6072670;23;20017;-70
2023/02/16 12:17:53;;;;;;;14.88;9.65;;;;;;;8.43;83.38;101688.84;6051401;23;20098;-70
2023/02/16 12:20:30;;;;;;;16.35;9.85;;;;;;;8.92;83.35;101763.41;6055863;23;20182;-69
2023/02/16 12:23:13;;;;;;;13.25;10.23;;;;;;;8.63;83.39;101738.03;6048323;23;20394;-70
2023/02/16 12:25:58;;;;;;;;;;;;;;;8.98;83.75;101768.47;6069728;23;20555;-70
2023/02/16 12:29:07;;;;;;;14.38;11.52;;;;;;;9.01;83.74;101767.50;6047452;23;20154;-70
2023/02/16 12:32:02;;;;;;;14.55;9.18;;;;;;;8.94;84.22;101769.44;5883449;24;20491;-70